sensor_id;sensor_type;location;lat;lon;timestamp;pressure;altitude;pressure_sealevel;temperature;humidity
81511;BME280;70931;48.796;8.440;2024-03-02T00:01:53;96054.75;;;3.74;75.79
81511;BME280;70931;48.796;8.440;2024-03-02T00:04:18;96049.16;;;3.77;75.79
81511;BME280;70931;48.796;8.440;2024-03-02T00:06:43;96041.28;;;3.85;75.21
81511;BME280;70931;48.796;8.440;2024-03-02T00:09:09;96049.44;;;3.66;75.39
81511;BME280;70931;48.796;8.440;2024-03-02T00:11:35;96041.81;;;3.55;75.65
81511;BME280;70931;48.796;8.440;2024-03-02T00:14:00;96041.81;;;3.55;75.80
81511;BME280;70931;48.796;8.440;2024-03-02T00:16:30;96046.38;;;3.53;75.98
81511;BME280;70931;48.796;8.440;2024-03-02T00:18:55;96042.16;;;3.60;75.69
81511;BME280;70931;48.796;8.440;2024-03-02T00:21:21;96013.22;;;3.42;75.54
81511;BME280;70931;48.796;8.440;2024-03-02T00:23:48;96044.25;;;3.57;75.92
81511;BME280;70931;48.796;8.440;2024-03-02T00:26:13;96033.16;;;3.45;76.41
81511;BME280;70931;48.796;8.440;2024-03-02T00:28:39;96033.84;;;3.47;76.01
81511;BME280;70931;48.796;8.440;2024-03-02T00:31:09;96026.06;;;3.12;77.12
81511;BME280;70931;48.796;8.440;2024-03-02T00:33:36;96006.47;;;3.40;75.88
81511;BME280;70931;48.796;8.440;2024-03-02T00:36:03;96031.91;;;3.57;75.72
81511;BME280;70931;48.796;8.440;2024-03-02T00:38:29;96029.94;;;3.59;76.00
81511;BME280;70931;48.796;8.440;2024-03-02T00:40:56;96031.09;;;3.31;76.28
81511;BME280;70931;48.796;8.440;2024-03-02T00:46:19;96029.13;;;3.59;75.77
81511;BME280;70931;48.796;8.440;2024-03-02T00:48:55;96025.63;;;3.50;75.46
81511;BME280;70931;48.796;8.440;2024-03-02T00:51:22;96014.56;;;3.47;75.38
81511;BME280;70931;48.796;8.440;2024-03-02T00:53:47;96017.44;;;3.61;75.14
81511;BME280;70931;48.796;8.440;2024-03-02T00:56:13;96023.34;;;3.55;75.51
81511;BME280;70931;48.796;8.440;2024-03-02T00:58:39;96030.94;;;3.58;75.39
81511;BME280;70931;48.796;8.440;2024-03-02T01:01:04;96026.34;;;3.60;74.92
81511;BME280;70931;48.796;8.440;2024-03-02T01:03:31;96026.34;;;3.60;75.01
81511;BME280;70931;48.796;8.440;2024-03-02T01:05:56;96028.94;;;3.52;75.25
81511;BME280;70931;48.796;8.440;2024-03-02T01:08:22;96042.16;;;3.09;76.66
81511;BME280;70931;48.796;8.440;2024-03-02T01:10:47;96042.25;;;3.25;76.23
81511;BME280;70931;48.796;8.440;2024-03-02T01:13:12;96045.69;;;3.43;75.70
81511;BME280;70931;48.796;8.440;2024-03-02T01:15:37;96040.31;;;3.27;75.52
81511;BME280;70931;48.796;8.440;2024-03-02T01:18:03;96042.06;;;3.44;75.50
81511;BME280;70931;48.796;8.440;2024-03-02T01:20:28;96039.50;;;3.26;75.63
81511;BME280;70931;48.796;8.440;2024-03-02T01:22:53;96029.56;;;3.46;75.24
81511;BME280;70931;48.796;8.440;2024-03-02T01:25:19;96033.91;;;3.04;76.04
81511;BME280;70931;48.796;8.440;2024-03-02T01:27:44;96035.53;;;3.30;76.14
81511;BME280;70931;48.796;8.440;2024-03-02T01:30:09;96030.19;;;3.40;75.00
81511;BME280;70931;48.796;8.440;2024-03-02T01:32:35;96056.53;;;3.40;75.24
81511;BME280;70931;48.796;8.440;2024-03-02T01:35:00;96028.94;;;3.52;74.98
81511;BME280;70931;48.796;8.440;2024-03-02T01:37:25;96022.47;;;3.47;75.05
81511;BME280;70931;48.796;8.440;2024-03-02T01:39:50;96031.22;;;3.21;75.43
81511;BME280;70931;48.796;8.440;2024-03-02T01:42:16;96025.31;;;3.27;75.79
81511;BME280;70931;48.796;8.440;2024-03-02T01:44:41;96025.84;;;3.31;76.05
81511;BME280;70931;48.796;8.440;2024-03-02T01:47:06;96033.28;;;3.10;76.46
81511;BME280;70931;48.796;8.440;2024-03-02T01:49:32;96025.63;;;3.24;75.85
81511;BME280;70931;48.796;8.440;2024-03-02T01:51:57;96025.44;;;3.18;76.11
81511;BME280;70931;48.796;8.440;2024-03-02T01:54:22;96010.47;;;3.18;75.63
81511;BME280;70931;48.796;8.440;2024-03-02T01:56:47;96015.09;;;2.99;76.91
81511;BME280;70931;48.796;8.440;2024-03-02T01:59:13;96013.66;;;3.30;76.27
81511;BME280;70931;48.796;8.440;2024-03-02T02:01:38;95993.84;;;3.18;75.86
81511;BME280;70931;48.796;8.440;2024-03-02T02:04:03;96014.63;;;3.29;75.78
81511;BME280;70931;48.796;8.440;2024-03-02T02:06:28;96012.66;;;3.31;75.75
81511;BME280;70931;48.796;8.440;2024-03-02T02:08:54;96017.31;;;3.37;75.75
81511;BME280;70931;48.796;8.440;2024-03-02T02:11:19;95998.63;;;3.22;75.75
81511;BME280;70931;48.796;8.440;2024-03-02T02:13:44;96005.38;;;3.25;75.82
81511;BME280;70931;48.796;8.440;2024-03-02T02:16:10;96005.06;;;3.28;75.89
81511;BME280;70931;48.796;8.440;2024-03-02T02:18:35;96005.59;;;3.31;76.23
81511;BME280;70931;48.796;8.440;2024-03-02T02:21:00;95959.91;;;2.89;75.62
81511;BME280;70931;48.796;8.440;2024-03-02T02:23:25;96009.19;;;3.05;76.85
81511;BME280;70931;48.796;8.440;2024-03-02T02:25:51;95997.16;;;3.28;76.48
81511;BME280;70931;48.796;8.440;2024-03-02T02:28:16;96001.16;;;3.32;76.07
81511;BME280;70931;48.796;8.440;2024-03-02T02:30:41;95999.81;;;3.28;75.91
81511;BME280;70931;48.796;8.440;2024-03-02T02:33:07;95997.34;;;3.26;76.13
81511;BME280;70931;48.796;8.440;2024-03-02T02:35:32;95993.22;;;3.24;76.20
81511;BME280;70931;48.796;8.440;2024-03-02T02:37:57;95998.78;;;3.21;76.23
81511;BME280;70931;48.796;8.440;2024-03-02T02:40:23;95987.25;;;3.22;75.81
81511;BME280;70931;48.796;8.440;2024-03-02T02:42:48;95987.94;;;3.24;76.02
81511;BME280;70931;48.796;8.440;2024-03-02T02:45:14;95981.66;;;3.25;76.53
81511;BME280;70931;48.796;8.440;2024-03-02T02:47:43;95978.19;;;3.24;75.81
81511;BME280;70931;48.796;8.440;2024-03-02T02:50:08;95958.19;;;3.06;76.93
81511;BME280;70931;48.796;8.440;2024-03-02T02:52:35;95965.81;;;3.17;76.79
81511;BME280;70931;48.796;8.440;2024-03-02T02:55:01;95976.47;;;2.81;77.67
81511;BME280;70931;48.796;8.440;2024-03-02T02:57:26;95969.03;;;2.77;78.42
81511;BME280;70931;48.796;8.440;2024-03-02T02:59:51;95966.13;;;3.14;77.05
81511;BME280;70931;48.796;8.440;2024-03-02T03:02:16;95969.78;;;3.13;76.70
81511;BME280;70931;48.796;8.440;2024-03-02T03:04:42;95974.81;;;3.06;77.00
81511;BME280;70931;48.796;8.440;2024-03-02T03:07:07;95972.75;;;3.18;76.71
81511;BME280;70931;48.796;8.440;2024-03-02T03:09:32;95973.41;;;3.20;76.42
81511;BME280;70931;48.796;8.440;2024-03-02T03:11:57;95958.13;;;3.23;76.38
81511;BME280;70931;48.796;8.440;2024-03-02T03:14:22;95960.34;;;3.10;76.86
81511;BME280;70931;48.796;8.440;2024-03-02T03:16:48;95962.91;;;2.94;76.56
81511;BME280;70931;48.796;8.440;2024-03-02T03:19:13;95965.94;;;3.07;76.07
81511;BME280;70931;48.796;8.440;2024-03-02T03:21:38;95962.59;;;2.97;76.64
81511;BME280;70931;48.796;8.440;2024-03-02T03:24:04;95961.88;;;3.13;76.11
81511;BME280;70931;48.796;8.440;2024-03-02T03:26:29;95963.25;;;2.99;77.34
81511;BME280;70931;48.796;8.440;2024-03-02T03:28:54;95958.28;;;2.96;77.39
81511;BME280;70931;48.796;8.440;2024-03-02T03:31:19;95961.88;;;3.13;76.70
81511;BME280;70931;48.796;8.440;2024-03-02T03:33:45;95962.31;;;3.08;76.65
81511;BME280;70931;48.796;8.440;2024-03-02T03:36:10;95965.13;;;3.07;76.38
81511;BME280;70931;48.796;8.440;2024-03-02T03:38:35;95927.41;;;2.72;77.43
81511;BME280;70931;48.796;8.440;2024-03-02T03:41:00;95966.41;;;3.03;76.62
81511;BME280;70931;48.796;8.440;2024-03-02T03:43:26;95959.97;;;2.97;77.92
81511;BME280;70931;48.796;8.440;2024-03-02T03:45:51;95954.38;;;3.00;77.47
81511;BME280;70931;48.796;8.440;2024-03-02T03:48:16;95956.13;;;2.92;78.78
81511;BME280;70931;48.796;8.440;2024-03-02T03:50:41;95951.19;;;2.88;78.20
81511;BME280;70931;48.796;8.440;2024-03-02T03:53:06;95954.78;;;2.87;79.72
81511;BME280;70931;48.796;8.440;2024-03-02T03:55:32;95960.84;;;2.80;78.43
81511;BME280;70931;48.796;8.440;2024-03-02T03:57:57;95956.66;;;2.95;77.94
81511;BME280;70931;48.796;8.440;2024-03-02T04:00:22;95962.41;;;2.99;78.24
81511;BME280;70931;48.796;8.440;2024-03-02T04:02:47;95960.63;;;2.99;78.18
81511;BME280;70931;48.796;8.440;2024-03-02T04:05:13;95955.91;;;3.11;77.50
81511;BME280;70931;48.796;8.440;2024-03-02T04:07:38;95932.09;;;2.86;77.90
81511;BME280;70931;48.796;8.440;2024-03-02T04:10:03;95955.22;;;3.01;78.63
81511;BME280;70931;48.796;8.440;2024-03-02T04:12:28;95951.25;;;3.05;78.45
81511;BME280;70931;48.796;8.440;2024-03-02T04:14:54;95949.41;;;2.97;77.14
81511;BME280;70931;48.796;8.440;2024-03-02T04:17:19;95955.88;;;2.77;78.78
81511;BME280;70931;48.796;8.440;2024-03-02T04:19:44;95961.72;;;2.88;79.12
81511;BME280;70931;48.796;8.440;2024-03-02T04:22:09;95952.16;;;2.87;79.59
81511;BME280;70931;48.796;8.440;2024-03-02T04:24:34;95942.34;;;2.98;78.90
81511;BME280;70931;48.796;8.440;2024-03-02T04:27:00;95946.00;;;3.05;78.91
81511;BME280;70931;48.796;8.440;2024-03-02T04:29:25;95947.69;;;3.14;78.56
81511;BME280;70931;48.796;8.440;2024-03-02T04:31:50;95945.69;;;3.08;78.83
81511;BME280;70931;48.796;8.440;2024-03-02T04:34:15;95946.16;;;3.03;78.86
81511;BME280;70931;48.796;8.440;2024-03-02T04:36:40;95952.13;;;3.13;78.81
81511;BME280;70931;48.796;8.440;2024-03-02T04:39:06;95942.13;;;3.17;79.51
81511;BME280;70931;48.796;8.440;2024-03-02T04:41:31;95945.78;;;3.24;79.69
81511;BME280;70931;48.796;8.440;2024-03-02T04:43:56;95940.84;;;3.21;78.49
81511;BME280;70931;48.796;8.440;2024-03-02T04:46:21;95946.09;;;3.21;78.47
81511;BME280;70931;48.796;8.440;2024-03-02T04:48:47;95955.63;;;3.22;78.25
81511;BME280;70931;48.796;8.440;2024-03-02T04:51:13;95951.34;;;3.13;77.97
81511;BME280;70931;48.796;8.440;2024-03-02T04:53:38;95947.13;;;3.02;77.98
81511;BME280;70931;48.796;8.440;2024-03-02T04:56:04;95952.94;;;3.06;77.94
81511;BME280;70931;48.796;8.440;2024-03-02T04:58:30;95958.28;;;2.96;79.00
81511;BME280;70931;48.796;8.440;2024-03-02T05:00:55;95967.63;;;2.91;78.30
81511;BME280;70931;48.796;8.440;2024-03-02T05:03:20;95969.31;;;2.92;78.11
81511;BME280;70931;48.796;8.440;2024-03-02T05:05:45;95975.53;;;2.91;77.75
81511;BME280;70931;48.796;8.440;2024-03-02T05:08:11;95979.78;;;2.83;78.32
81511;BME280;70931;48.796;8.440;2024-03-02T05:10:36;95986.53;;;2.86;78.32
81511;BME280;70931;48.796;8.440;2024-03-02T05:13:01;95985.00;;;2.75;78.47
81511;BME280;70931;48.796;8.440;2024-03-02T05:15:26;95994.56;;;2.84;78.82
81511;BME280;70931;48.796;8.440;2024-03-02T05:17:52;95985.41;;;2.88;78.80
81511;BME280;70931;48.796;8.440;2024-03-02T05:20:17;95993.38;;;2.79;78.89
81511;BME280;70931;48.796;8.440;2024-03-02T05:22:42;95991.81;;;2.86;79.20
81511;BME280;70931;48.796;8.440;2024-03-02T05:25:08;95991.63;;;2.87;78.94
81511;BME280;70931;48.796;8.440;2024-03-02T05:27:33;95996.00;;;2.97;78.14
81511;BME280;70931;48.796;8.440;2024-03-02T05:29:59;95995.78;;;2.90;77.86
81511;BME280;70931;48.796;8.440;2024-03-02T05:32:25;95978.00;;;2.66;79.54
81511;BME280;70931;48.796;8.440;2024-03-02T05:34:50;95980.41;;;2.77;78.85
81511;BME280;70931;48.796;8.440;2024-03-02T05:37:15;95990.97;;;2.85;78.43
81511;BME280;70931;48.796;8.440;2024-03-02T05:39:40;95985.34;;;2.80;78.49
81511;BME280;70931;48.796;8.440;2024-03-02T05:42:06;95983.06;;;2.85;78.21
81511;BME280;70931;48.796;8.440;2024-03-02T05:44:31;95991.63;;;2.87;78.07
81511;BME280;70931;48.796;8.440;2024-03-02T05:46:56;95987.09;;;2.72;78.77
81511;BME280;70931;48.796;8.440;2024-03-02T05:49:21;95985.31;;;2.72;80.17
81511;BME280;70931;48.796;8.440;2024-03-02T05:51:47;95992.13;;;2.83;79.01
81511;BME280;70931;48.796;8.440;2024-03-02T05:54:12;95971.84;;;2.75;79.70
81511;BME280;70931;48.796;8.440;2024-03-02T05:56:37;95984.59;;;2.70;79.96
81511;BME280;70931;48.796;8.440;2024-03-02T05:59:03;95961.22;;;2.67;79.01
81511;BME280;70931;48.796;8.440;2024-03-02T06:01:28;95988.97;;;2.79;79.24
81511;BME280;70931;48.796;8.440;2024-03-02T06:03:55;95993.59;;;2.85;78.94
81511;BME280;70931;48.796;8.440;2024-03-02T06:06:20;95991.22;;;2.74;79.04
81511;BME280;70931;48.796;8.440;2024-03-02T06:08:45;95990.91;;;2.77;78.83
81511;BME280;70931;48.796;8.440;2024-03-02T06:11:10;95991.59;;;2.79;78.15
81511;BME280;70931;48.796;8.440;2024-03-02T06:13:36;95984.34;;;2.81;79.02
81511;BME280;70931;48.796;8.440;2024-03-02T06:16:01;95988.97;;;2.79;79.26
81511;BME280;70931;48.796;8.440;2024-03-02T06:18:26;95988.00;;;2.80;78.82
81511;BME280;70931;48.796;8.440;2024-03-02T06:20:51;95983.03;;;2.77;78.88
81511;BME280;70931;48.796;8.440;2024-03-02T06:23:16;95990.91;;;2.77;79.18
81511;BME280;70931;48.796;8.440;2024-03-02T06:25:42;95994.69;;;2.75;78.95
81511;BME280;70931;48.796;8.440;2024-03-02T06:28:07;95992.88;;;2.75;79.84
81511;BME280;70931;48.796;8.440;2024-03-02T06:30:32;95997.03;;;2.78;79.69
81511;BME280;70931;48.796;8.440;2024-03-02T06:32:57;96003.91;;;2.79;79.42
81511;BME280;70931;48.796;8.440;2024-03-02T06:35:22;95991.59;;;2.62;80.09
81511;BME280;70931;48.796;8.440;2024-03-02T06:37:48;96002.28;;;2.78;80.25
81511;BME280;70931;48.796;8.440;2024-03-02T06:40:13;96001.34;;;2.87;79.88
81511;BME280;70931;48.796;8.440;2024-03-02T06:42:38;95999.72;;;2.86;79.66
81511;BME280;70931;48.796;8.440;2024-03-02T06:45:04;95993.81;;;2.92;79.57
81511;BME280;70931;48.796;8.440;2024-03-02T06:47:29;95997.47;;;2.99;79.35
81511;BME280;70931;48.796;8.440;2024-03-02T06:49:54;95996.00;;;2.97;78.56
81511;BME280;70931;48.796;8.440;2024-03-02T06:52:19;95992.91;;;3.01;78.38
81511;BME280;70931;48.796;8.440;2024-03-02T06:54:45;95993.88;;;3.00;78.39
81511;BME280;70931;48.796;8.440;2024-03-02T06:57:10;96007.03;;;3.00;78.29
81511;BME280;70931;48.796;8.440;2024-03-02T06:59:35;96003.22;;;2.95;78.68
81511;BME280;70931;48.796;8.440;2024-03-02T07:02:00;96003.44;;;3.01;78.14
81511;BME280;70931;48.796;8.440;2024-03-02T07:04:26;96007.81;;;2.93;79.23
81511;BME280;70931;48.796;8.440;2024-03-02T07:06:51;96006.16;;;2.92;79.13
81511;BME280;70931;48.796;8.440;2024-03-02T07:09:16;96003.28;;;3.03;78.74
81511;BME280;70931;48.796;8.440;2024-03-02T07:11:42;96000.94;;;3.00;79.04
81511;BME280;70931;48.796;8.440;2024-03-02T07:14:07;96007.44;;;2.87;79.54
81511;BME280;70931;48.796;8.440;2024-03-02T07:16:32;96013.50;;;3.06;78.93
81511;BME280;70931;48.796;8.440;2024-03-02T07:18:57;96007.25;;;3.07;79.22
81511;BME280;70931;48.796;8.440;2024-03-02T07:21:23;96010.59;;;3.17;79.21
81511;BME280;70931;48.796;8.440;2024-03-02T07:23:48;95986.50;;;3.04;79.80
81511;BME280;70931;48.796;8.440;2024-03-02T07:26:14;96011.69;;;3.32;79.12
81511;BME280;70931;48.796;8.440;2024-03-02T07:28:39;96009.41;;;3.37;78.54
81511;BME280;70931;48.796;8.440;2024-03-02T07:31:04;96009.63;;;3.43;78.96
81511;BME280;70931;48.796;8.440;2024-03-02T07:33:30;96000.53;;;3.38;80.13
81511;BME280;70931;48.796;8.440;2024-03-02T07:35:56;96006.19;;;3.51;79.11
81511;BME280;70931;48.796;8.440;2024-03-02T07:38:22;96015.97;;;3.59;78.92
81511;BME280;70931;48.796;8.440;2024-03-02T07:40:48;96004.41;;;3.60;79.58
81511;BME280;70931;48.796;8.440;2024-03-02T07:43:13;96007.91;;;3.68;79.56
81511;BME280;70931;48.796;8.440;2024-03-02T07:45:39;95998.41;;;3.75;79.66
81511;BME280;70931;48.796;8.440;2024-03-02T07:48:04;96001.38;;;3.80;80.79
81511;BME280;70931;48.796;8.440;2024-03-02T07:50:29;95999.47;;;3.98;79.86
81511;BME280;70931;48.796;8.440;2024-03-02T07:52:55;95996.53;;;4.10;79.70
81511;BME280;70931;48.796;8.440;2024-03-02T07:55:20;96001.97;;;4.16;79.94
81511;BME280;70931;48.796;8.440;2024-03-02T07:57:45;96006.47;;;4.32;79.60
81511;BME280;70931;48.796;8.440;2024-03-02T08:00:11;96003.50;;;4.35;79.65
81511;BME280;70931;48.796;8.440;2024-03-02T08:02:36;95993.97;;;4.50;79.21
81511;BME280;70931;48.796;8.440;2024-03-02T08:05:01;95981.91;;;4.55;79.37
81511;BME280;70931;48.796;8.440;2024-03-02T08:07:26;95998.59;;;4.72;79.47
81511;BME280;70931;48.796;8.440;2024-03-02T08:09:52;95997.28;;;4.84;79.36
81511;BME280;70931;48.796;8.440;2024-03-02T08:12:17;95994.59;;;5.00;79.16
81511;BME280;70931;48.796;8.440;2024-03-02T08:14:42;95998.06;;;5.09;78.68
81511;BME280;70931;48.796;8.440;2024-03-02T08:17:07;95996.41;;;5.16;79.47
81511;BME280;70931;48.796;8.440;2024-03-02T08:19:33;95993.59;;;5.34;79.64
81511;BME280;70931;48.796;8.440;2024-03-02T08:21:58;95984.84;;;5.88;73.49
81511;BME280;70931;48.796;8.440;2024-03-02T08:24:23;95979.22;;;6.45;75.04
81511;BME280;70931;48.796;8.440;2024-03-02T08:26:48;95981.56;;;7.22;67.94
81511;BME280;70931;48.796;8.440;2024-03-02T08:29:14;95973.22;;;7.84;67.10
81511;BME280;70931;48.796;8.440;2024-03-02T08:31:39;95975.84;;;8.28;63.40
81511;BME280;70931;48.796;8.440;2024-03-02T08:34:04;95972.72;;;8.81;62.04
81511;BME280;70931;48.796;8.440;2024-03-02T08:36:29;95968.66;;;9.06;62.77
81511;BME280;70931;48.796;8.440;2024-03-02T08:38:55;95964.81;;;9.09;62.39
81511;BME280;70931;48.796;8.440;2024-03-02T08:41:20;95973.69;;;9.50;58.60
81511;BME280;70931;48.796;8.440;2024-03-02T08:43:45;95974.25;;;9.73;59.68
81511;BME280;70931;48.796;8.440;2024-03-02T08:46:10;95971.78;;;9.72;60.16
81511;BME280;70931;48.796;8.440;2024-03-02T08:48:36;95972.31;;;9.95;57.88
81511;BME280;70931;48.796;8.440;2024-03-02T08:51:01;95968.06;;;10.01;58.97
81511;BME280;70931;48.796;8.440;2024-03-02T08:53:26;95972.03;;;10.18;57.81
81511;BME280;70931;48.796;8.440;2024-03-02T08:55:51;95969.03;;;10.34;56.40
81511;BME280;70931;48.796;8.440;2024-03-02T08:58:17;95964.13;;;10.38;57.65
81511;BME280;70931;48.796;8.440;2024-03-02T09:00:42;95966.66;;;10.59;59.21
81511;BME280;70931;48.796;8.440;2024-03-02T09:03:07;95958.00;;;10.57;57.05
81511;BME280;70931;48.796;8.440;2024-03-02T09:05:33;95961.91;;;10.54;57.93
81511;BME280;70931;48.796;8.440;2024-03-02T09:07:58;95962.72;;;10.48;60.24
81511;BME280;70931;48.796;8.440;2024-03-02T09:10:23;95958.56;;;10.39;61.06
81511;BME280;70931;48.796;8.440;2024-03-02T09:12:48;95959.47;;;10.53;57.39
81511;BME280;70931;48.796;8.440;2024-03-02T09:15:14;95968.91;;;10.68;56.02
81511;BME280;70931;48.796;8.440;2024-03-02T09:17:39;95968.13;;;11.01;56.74
81511;BME280;70931;48.796;8.440;2024-03-02T09:20:05;95960.34;;;11.19;54.81
81511;BME280;70931;48.796;8.440;2024-03-02T09:22:30;95971.03;;;11.32;56.16
81511;BME280;70931;48.796;8.440;2024-03-02T09:24:56;95956.22;;;11.56;54.09
81511;BME280;70931;48.796;8.440;2024-03-02T09:27:21;95964.63;;;11.72;54.68
81511;BME280;70931;48.796;8.440;2024-03-02T09:29:46;95945.53;;;11.75;52.47
81511;BME280;70931;48.796;8.440;2024-03-02T09:32:12;95953.91;;;11.85;52.84
81511;BME280;70931;48.796;8.440;2024-03-02T09:34:38;95955.72;;;12.05;51.18
81511;BME280;70931;48.796;8.440;2024-03-02T09:37:03;95949.44;;;12.30;50.82
81511;BME280;70931;48.796;8.440;2024-03-02T09:39:28;95952.88;;;12.44;50.26
81511;BME280;70931;48.796;8.440;2024-03-02T09:41:54;95952.56;;;12.65;51.07
81511;BME280;70931;48.796;8.440;2024-03-02T09:44:19;95952.84;;;12.88;49.06
81511;BME280;70931;48.796;8.440;2024-03-02T09:46:48;95950.34;;;12.87;50.12
81511;BME280;70931;48.796;8.440;2024-03-02T09:49:14;95940.09;;;13.40;48.57
81511;BME280;70931;48.796;8.440;2024-03-02T09:51:40;95946.97;;;13.54;48.25
81511;BME280;70931;48.796;8.440;2024-03-02T09:54:07;95953.41;;;13.71;47.23
81511;BME280;70931;48.796;8.440;2024-03-02T09:56:32;95954.75;;;13.98;45.96
81511;BME280;70931;48.796;8.440;2024-03-02T09:58:58;95950.75;;;14.25;45.05
81511;BME280;70931;48.796;8.440;2024-03-02T10:01:24;95956.06;;;14.62;45.53
81511;BME280;70931;48.796;8.440;2024-03-02T10:03:49;95951.38;;;14.87;43.46
81511;BME280;70931;48.796;8.440;2024-03-02T10:06:26;95957.91;;;15.32;43.44
81511;BME280;70931;48.796;8.440;2024-03-02T10:08:51;95927.16;;;15.47;40.80
81511;BME280;70931;48.796;8.440;2024-03-02T10:11:31;95952.81;;;16.12;40.90
81511;BME280;70931;48.796;8.440;2024-03-02T10:14:10;95951.16;;;15.41;41.55
81511;BME280;70931;48.796;8.440;2024-03-02T10:16:45;95956.50;;;16.58;39.65
81511;BME280;70931;48.796;8.440;2024-03-02T10:21:53;95942.56;;;15.63;40.16
81511;BME280;70931;48.796;8.440;2024-03-02T10:24:19;95940.78;;;16.15;39.81
81511;BME280;70931;48.796;8.440;2024-03-02T10:26:45;95933.88;;;16.07;39.95
81511;BME280;70931;48.796;8.440;2024-03-02T10:29:10;95936.66;;;16.24;38.84
81511;BME280;70931;48.796;8.440;2024-03-02T10:31:41;95930.53;;;17.25;36.78
81511;BME280;70931;48.796;8.440;2024-03-02T10:34:07;95941.38;;;17.80;36.89
81511;BME280;70931;48.796;8.440;2024-03-02T10:36:34;95935.00;;;18.24;36.26
81511;BME280;70931;48.796;8.440;2024-03-02T10:39:01;95932.00;;;17.32;37.24
81511;BME280;70931;48.796;8.440;2024-03-02T10:41:26;95921.53;;;17.19;37.13
81511;BME280;70931;48.796;8.440;2024-03-02T10:43:52;95914.16;;;17.98;35.87
81511;BME280;70931;48.796;8.440;2024-03-02T10:46:22;95921.59;;;18.72;34.34
81511;BME280;70931;48.796;8.440;2024-03-02T10:48:47;95917.66;;;19.12;33.53
81511;BME280;70931;48.796;8.440;2024-03-02T10:51:13;95911.63;;;19.63;33.24
81511;BME280;70931;48.796;8.440;2024-03-02T10:53:38;95910.09;;;19.77;32.19
81511;BME280;70931;48.796;8.440;2024-03-02T10:56:07;95898.78;;;18.85;33.82
81511;BME280;70931;48.796;8.440;2024-03-02T10:58:33;95909.66;;;18.25;34.32
81511;BME280;70931;48.796;8.440;2024-03-02T11:01:02;95902.97;;;19.03;33.69
81511;BME280;70931;48.796;8.440;2024-03-02T11:03:33;95879.78;;;18.53;34.37
81511;BME280;70931;48.796;8.440;2024-03-02T11:05:59;95894.25;;;17.65;35.21
81511;BME280;70931;48.796;8.440;2024-03-02T11:08:26;95898.56;;;18.65;34.59
81511;BME280;70931;48.796;8.440;2024-03-02T11:11:04;95897.31;;;19.63;32.23
81511;BME280;70931;48.796;8.440;2024-03-02T11:13:32;95899.00;;;20.21;31.86
81511;BME280;70931;48.796;8.440;2024-03-02T11:16:02;95897.06;;;20.68;31.14
81511;BME280;70931;48.796;8.440;2024-03-02T11:18:29;95892.94;;;20.56;31.62
81511;BME280;70931;48.796;8.440;2024-03-02T11:20:54;95890.38;;;19.77;31.15
81511;BME280;70931;48.796;8.440;2024-03-02T11:23:31;95890.88;;;20.21;31.40
81511;BME280;70931;48.796;8.440;2024-03-02T11:26:16;95876.81;;;20.24;31.23
81511;BME280;70931;48.796;8.440;2024-03-02T11:28:42;95885.75;;;20.91;31.01
81511;BME280;70931;48.796;8.440;2024-03-02T11:31:07;95859.22;;;21.69;29.84
81511;BME280;70931;48.796;8.440;2024-03-02T11:33:32;95887.25;;;22.44;28.29
81511;BME280;70931;48.796;8.440;2024-03-02T11:35:58;95882.28;;;22.66;28.04
81511;BME280;70931;48.796;8.440;2024-03-02T11:38:24;95872.63;;;22.94;27.25
81511;BME280;70931;48.796;8.440;2024-03-02T11:40:52;95865.97;;;23.15;26.91
81511;BME280;70931;48.796;8.440;2024-03-02T11:43:17;95861.66;;;23.09;26.96
81511;BME280;70931;48.796;8.440;2024-03-02T11:45:43;95847.59;;;23.31;27.81
81511;BME280;70931;48.796;8.440;2024-03-02T11:48:09;95860.94;;;23.66;26.70
81511;BME280;70931;48.796;8.440;2024-03-02T11:50:36;95851.16;;;24.17;25.51
81511;BME280;70931;48.796;8.440;2024-03-02T11:53:02;95850.56;;;23.68;26.34
81511;BME280;70931;48.796;8.440;2024-03-02T11:55:30;95845.28;;;23.53;26.15
81511;BME280;70931;48.796;8.440;2024-03-02T11:57:55;95851.72;;;23.62;26.42
81511;BME280;70931;48.796;8.440;2024-03-02T12:00:21;95837.41;;;24.04;25.77
81511;BME280;70931;48.796;8.440;2024-03-02T12:02:48;95847.19;;;23.81;26.79
81511;BME280;70931;48.796;8.440;2024-03-02T12:05:24;95833.44;;;23.91;25.86
81511;BME280;70931;48.796;8.440;2024-03-02T12:07:55;95838.59;;;23.69;26.45
81511;BME280;70931;48.796;8.440;2024-03-02T12:10:21;95834.38;;;24.10;25.13
81511;BME280;70931;48.796;8.440;2024-03-02T12:12:46;95826.13;;;24.15;25.40
81511;BME280;70931;48.796;8.440;2024-03-02T12:15:11;95823.69;;;24.37;26.75
81511;BME280;70931;48.796;8.440;2024-03-02T12:17:37;95821.34;;;24.02;24.58
81511;BME280;70931;48.796;8.440;2024-03-02T12:20:04;95821.66;;;24.67;24.85
81511;BME280;70931;48.796;8.440;2024-03-02T12:22:30;95826.06;;;24.63;24.81
81511;BME280;70931;48.796;8.440;2024-03-02T12:24:55;95822.25;;;24.64;25.48
81511;BME280;70931;48.796;8.440;2024-03-02T12:27:20;95783.53;;;24.43;26.12
81511;BME280;70931;48.796;8.440;2024-03-02T12:29:46;95819.63;;;24.11;25.92
81511;BME280;70931;48.796;8.440;2024-03-02T12:32:11;95832.06;;;23.65;27.29
81511;BME280;70931;48.796;8.440;2024-03-02T12:34:38;95822.13;;;23.21;27.88
81511;BME280;70931;48.796;8.440;2024-03-02T12:37:03;95809.47;;;23.41;26.87
81511;BME280;70931;48.796;8.440;2024-03-02T12:39:28;95825.03;;;22.42;27.80
81511;BME280;70931;48.796;8.440;2024-03-02T12:41:54;95791.78;;;23.04;28.28
81511;BME280;70931;48.796;8.440;2024-03-02T12:44:19;95799.78;;;23.82;27.72
81511;BME280;70931;48.796;8.440;2024-03-02T12:46:46;95803.63;;;23.81;27.31
81511;BME280;70931;48.796;8.440;2024-03-02T12:49:12;95788.66;;;24.02;27.25
81511;BME280;70931;48.796;8.440;2024-03-02T12:51:41;95805.66;;;23.70;27.58
81511;BME280;70931;48.796;8.440;2024-03-02T12:54:10;95797.25;;;24.14;26.96
81511;BME280;70931;48.796;8.440;2024-03-02T12:56:36;95800.47;;;24.21;27.50
81511;BME280;70931;48.796;8.440;2024-03-02T12:59:02;95797.47;;;23.94;28.36
81511;BME280;70931;48.796;8.440;2024-03-02T13:01:27;95788.72;;;24.63;27.28
81511;BME280;70931;48.796;8.440;2024-03-02T13:03:53;95787.47;;;24.56;26.30
81511;BME280;70931;48.796;8.440;2024-03-02T13:06:19;95779.78;;;24.58;26.75